Data for 10/27/2013

Time Sea-Level Adjusted Pressure Absolute Pressure Temperature Relative Humidity Dew Point   
(mb) (inHg) (mb) (inHg) (C) (F) (%) (C) (F)
00:05 1019 30.09 849 25.07 4.5 40.1 50 -5 23.1
00:10 1019 30.09 849 25.07 4.7 40.4 50 -4.8 23.4
00:15 1019 30.09 849 25.07 4.7 40.5 50 -4.8 23.4
00:20 1019 30.09 849 25.07 4.7 40.4 51 -4.7 23.5
00:25 1019 30.09 848 25.04 4.3 39.8 52 -4.8 23.4
00:30 1019 30.09 848 25.04 4.4 39.9 51 -4.9 23.2
00:35 1019 30.09 848 25.04 4.5 40.1 51 -4.7 23.6
00:40 1019 30.09 848 25.04 4.5 40 51 -4.9 23.2
00:45 1019 30.09 848 25.04 4.5 40.1 51 -4.8 23.4
00:50 1019 30.09 848 25.04 4.5 40.1 51 -4.9 23.2
00:55 1019 30.09 848 25.04 4.6 40.2 51 -4.8 23.4
01:00 1019 30.09 848 25.04 4.4 40 51 -4.8 23.4
01:05 1019 30.09 848 25.04 4.2 39.6 52 -4.7 23.5
01:10 1019 30.09 848 25.04 4.1 39.4 52 -4.9 23.2
01:15 1019 30.09 848 25.04 4.2 39.5 52 -4.8 23.3
01:20 1019 30.09 848 25.04 4.1 39.3 53 -4.7 23.5
01:25 1019 30.09 848 25.04 3.9 39 53 -4.7 23.5
01:30 1018 30.06 848 25.04 3.9 39.1 52 -4.9 23.2
01:35 1018 30.06 848 25.04 4.1 39.4 52 -4.9 23.3
01:40 1018 30.06 848 25.04 4 39.3 53 -4.7 23.5
01:45 1018 30.06 848 25.04 3.9 39.1 52 -5.1 22.8
01:50 1018 30.06 847 25.01 4 39.2 53 -4.8 23.4
01:55 1018 30.06 847 25.01 3.7 38.7 54 -4.8 23.4
02:00 1018 30.06 847 25.01 3.6 38.4 54 -4.8 23.3
02:05 1018 30.06 847 25.01 3.5 38.3 55 -4.8 23.3
02:10 1018 30.06 847 25.01 3.4 38.1 54 -4.9 23.1
02:15 1018 30.06 847 25.01 3.4 38.1 54 -5 23.1
02:20 1018 30.06 847 25.01 3.4 38.1 54 -5 23
02:25 1018 30.06 847 25.01 3.5 38.2 54 -4.9 23.1
02:30 1018 30.06 847 25.01 3.4 38.1 54 -5 23
02:35 1018 30.06 847 25.01 3.5 38.2 54 -5 23
02:40 1018 30.06 847 25.01 3.5 38.3 53 -5.2 22.7
02:45 1018 30.06 847 25.01 3.6 38.5 53 -5 23
02:50 1018 30.06 847 25.01 3.5 38.3 54 -4.9 23.1
02:55 1018 30.06 847 25.01 3.4 38.2 54 -4.9 23.1
03:00 1018 30.06 847 25.01 3.3 37.9 55 -4.9 23.3
03:05 1018 30.06 847 25.01 3.2 37.7 55 -5 23
03:10 1017 30.03 847 25.01 3.3 37.9 55 -4.9 23.1
03:15 1017 30.03 847 25.01 3.3 38 54 -5.2 22.7
03:20 1017 30.03 846 24.98 3.4 38.2 54 -5.1 22.9
03:25 1017 30.03 846 24.98 3.5 38.2 54 -5 23
03:30 1017 30.03 846 24.98 3.6 38.5 53 -5.1 22.8
03:35 1017 30.03 846 24.98 3.6 38.5 53 -5 22.9
03:40 1017 30.03 846 24.98 3.4 38.1 55 -4.9 23.2
03:45 1017 30.03 846 24.98 3.1 37.6 55 -5 22.9
03:50 1017 30.03 846 24.98 2.9 37.3 56 -5 23
03:55 1017 30.03 846 24.98 2.9 37.3 55 -5.2 22.7
04:00 1017 30.03 846 24.98 3.2 37.8 54 -5.2 22.6
04:05 1017 30.03 846 24.98 3.6 38.4 54 -4.8 23.3
04:10 1017 30.03 846 24.98 3.7 38.7 55 -4.6 23.7
04:15 1017 30.03 846 24.98 3.5 38.4 54 -4.8 23.3
04:20 1016 30 846 24.98 3.4 38.1 56 -4.6 23.8
04:25 1016 30 846 24.98 3.8 38.9 54 -4.5 23.8
04:30 1016 30 846 24.98 3.8 38.9 54 -4.6 23.6
04:35 1016 30 845 24.95 3.7 38.7 55 -4.5 23.9
04:40 1016 30 845 24.95 3.7 38.6 53 -4.9 23.1
04:45 1016 30 845 24.95 3.8 38.9 53 -4.9 23.1
04:50 1016 30 845 24.95 3.9 39.1 54 -4.7 23.6
04:55 1016 30 845 24.95 3.8 38.9 52 -5 22.9
05:00 1016 30 845 24.95 3.6 38.5 53 -5.1 22.8
05:05 1016 30 845 24.95 3.7 38.7 52 -5.3 22.5
05:10 1016 30 845 24.95 3.8 38.9 52 -5.2 22.6
05:15 1016 30 845 24.95 3.8 38.8 52 -5.1 22.8
05:20 1016 30 845 24.95 3.6 38.5 52 -5.4 22.2
05:25 1016 30 845 24.95 4.1 39.4 53 -4.7 23.5
05:30 1016 30 845 24.95 3.8 38.8 52 -5.1 22.8
05:35 1015 29.97 845 24.95 3.5 38.3 53 -5.2 22.7
05:40 1015 29.97 845 24.95 3.3 37.9 54 -5.1 22.8
05:45 1015 29.97 845 24.95 3 37.4 55 -5.1 22.8
05:50 1015 29.97 844 24.92 2.9 37.3 56 -5.1 22.8
05:55 1015 29.97 844 24.92 2.7 36.9 57 -5 23
06:00 1015 29.97 844 24.92 2.2 36 59 -4.9 23.3
06:05 1015 29.97 844 24.92 2 35.5 59 -5.3 22.5
06:10 1015 29.97 844 24.92 2.1 35.8 58 -5.2 22.6
06:15 1015 29.97 844 24.92 2.1 35.9 59 -5.1 22.8
06:20 1015 29.97 844 24.92 2 35.6 59 -5.2 22.7
06:25 1015 29.97 844 24.92 2.1 35.8 58 -5.3 22.4
06:30 1015 29.97 844 24.92 2.4 36.3 58 -5.1 22.8
06:35 1015 29.97 844 24.92 2.5 36.5 57 -5 22.9
06:40 1015 29.97 844 24.92 2.4 36.3 58 -5 23
06:45 1015 29.97 844 24.92 2 35.6 60 -5 23
06:50 1015 29.97 844 24.92 1.9 35.3 61 -4.9 23.1
06:55 1015 29.97 844 24.92 1.2 34.2 63 -5 23.1
07:00 1015 29.97 844 24.92 1 33.8 64 -5.1 22.8
07:05 1015 29.97 844 24.92 1 33.9 63 -5.3 22.5
07:10 1015 29.97 844 24.92 1.5 34.6 60 -5.4 22.3
07:15 1015 29.97 844 24.92 2.2 36 55 -5.9 21.3
07:20 1015 29.97 844 24.92 3 37.5 54 -5.4 22.2
07:25 1015 29.97 844 24.92 2.7 36.9 56 -5.2 22.6
07:30 1015 29.97 844 24.92 2.3 36.1 56 -5.6 22
07:35 1015 29.97 844 24.92 2.7 36.8 55 -5.5 22
07:40 1015 29.97 844 24.92 3 37.4 54 -5.4 22.3
07:45 1015 29.97 844 24.92 3.4 38.1 53 -5.4 22.3
07:50 1015 29.97 844 24.92 3.6 38.4 52 -5.3 22.5
07:55 1015 29.97 844 24.92 3.6 38.5 53 -5.2 22.7
08:00 1015 29.97 844 24.92 3.8 38.8 52 -5.2 22.6
08:05 1015 29.97 844 24.92 4.1 39.4 50 -5.4 22.3
08:10 1015 29.97 844 24.92 4.7 40.5 48 -5.3 22.4
08:15 1015 29.97 844 24.92 5 41.1 48 -5.1 22.8
08:20 1015 29.97 844 24.92 5.3 41.5 47 -5.1 22.8
08:25 1015 29.97 844 24.92 5.5 42 46 -5.1 22.9
08:30 1015 29.97 844 24.92 5.9 42.6 46 -4.9 23.2
08:35 1015 29.97 844 24.92 6 42.8 48 -4.1 24.6
08:40 1015 29.97 844 24.92 6.1 43 45 -4.8 23.3
08:45 1015 29.97 844 24.92 6.6 43.8 46 -4.3 24.2
08:50 1015 29.97 844 24.92 7.1 44.7 44 -4.2 24.4
08:55 1014 29.94 844 24.92 7.3 45.1 45 -3.8 25.1
09:00 1015 29.97 844 24.92 7.4 45.4 44 -4 24.8
09:05 1015 29.97 844 24.92 8.1 46.6 42 -4 24.8
09:10 1014 29.94 844 24.92 8.7 47.7 39 -4.3 24.3
09:15 1014 29.94 844 24.92 9.2 48.6 39 -3.9 24.9
09:20 1014 29.94 844 24.92 9.7 49.4 37 -4.3 24.2
09:25 1014 29.94 844 24.92 10 50.1 38 -3.7 25.3
09:30 1014 29.94 843 24.89 10.1 50.1 35 -4.6 23.7
09:35 1014 29.94 843 24.89 10.2 50.4 36 -4.2 24.4
09:40 1014 29.94 843 24.89 10.6 51 35 -4.1 24.6
09:45 1014 29.94 843 24.89 10.7 51.2 34 -4.3 24.2
09:50 1014 29.94 843 24.89 11.1 52 32 -4.8 23.3
09:55 1014 29.94 843 24.89 11.4 52.5 31 -5.2 22.7
10:00 1014 29.94 843 24.89 12.1 53.7 28 -5.8 21.6
10:05 1014 29.94 843 24.89 12.2 54 28 -5.8 21.5
10:10 1014 29.94 843 24.89 12.6 54.8 28 -5.5 22.1
10:15 1014 29.94 843 24.89 12.6 54.7 27 -6 21.2
10:20 1014 29.94 843 24.89 13.1 55.6 27 -5.4 22.2
10:25 1014 29.94 843 24.89 13.2 55.7 26 -5.8 21.5
10:30 1014 29.94 843 24.89 13.2 55.7 26 -6.1 21.1
10:35 1013 29.91 843 24.89 13.6 56.4 25 -5.9 21.4
10:40 1013 29.91 843 24.89 14.1 57.3 24 -5.9 21.4
10:45 1013 29.91 843 24.89 14.6 58.2 24 -5.8 21.6
10:50 1013 29.91 843 24.89 14.9 58.8 25 -5 23
10:55 1013 29.91 843 24.89 14.6 58.2 27 -4.1 24.7
11:00 1013 29.91 843 24.89 15 59 26 -4.5 24
11:05 1013 29.91 842 24.86 14.4 57.9 28 -4 24.9
11:10 1013 29.91 842 24.86 14.8 58.6 27 -4.2 24.5
11:15 1013 29.91 842 24.86 14.8 58.7 27 -3.7 25.3
11:20 1013 29.91 842 24.86 14.2 57.5 26 -4.8 23.4
11:25 1013 29.91 842 24.86 14.3 57.7 29 -3.6 25.6
11:30 1013 29.91 842 24.86 14.6 58.2 28 -3.8 25.2
11:35 1013 29.91 842 24.86 14.1 57.3 27 -4.5 24
11:40 1013 29.91 842 24.86 14.9 58.8 28 -3.5 25.7
11:45 1013 29.91 842 24.86 15.4 59.8 28 -2.9 26.9
11:50 1013 29.91 842 24.86 15.1 59.1 28 -3.1 26.4
11:55 1013 29.91 842 24.86 14.5 58.1 29 -3 26.6
12:00 1013 29.91 842 24.86 15 58.9 27 -3.8 25.1
12:05 1013 29.91 842 24.86 14.4 57.9 28 -3.8 25.2
12:10 1012 29.88 842 24.86 14.8 58.6 26 -4.5 23.9
12:15 1012 29.88 842 24.86 15.6 60 25 -4.1 24.7
12:20 1012 29.88 841 24.83 15.1 59.2 27 -3.8 25.2
12:25 1012 29.88 841 24.83 14.9 58.9 25 -4.8 23.3
12:30 1012 29.88 841 24.83 15.5 59.9 19 -7.9 17.8
12:35 1012 29.88 841 24.83 15.2 59.3 19 -8.4 16.9
12:40 1012 29.88 841 24.83 15.4 59.8 20 -7.4 18.7
12:45 1012 29.88 841 24.83 16.5 61.8 18 -7.9 17.8
12:50 1012 29.88 841 24.83 16.6 61.9 20 -6.5 20.3
12:55 1012 29.88 841 24.83 16.3 61.4 20 -6.9 19.6
13:00 1012 29.88 841 24.83 17.2 63 18 -7.5 18.5
13:05 1012 29.88 841 24.83 17.4 63.3 18 -6.8 19.8
13:10 1012 29.88 841 24.83 17 62.5 17 -8.5 16.7
13:15 1011 29.85 841 24.83 17.3 63.1 15 -9.6 14.8
13:20 1011 29.85 841 24.83 16.8 62.2 15 -9.9 14.2
13:25 1011 29.85 841 24.83 16.7 62.1 15 -10.4 13.3
13:30 1011 29.85 841 24.83 17.1 62.7 14 -10.2 13.6
13:35 1011 29.85 841 24.83 15.9 60.6 14 -11.2 11.9
13:40 1011 29.85 840 24.81 17 62.5 13 -11.8 10.8
13:45 1011 29.85 840 24.81 17 62.7 13 -11.2 11.8
13:50 1011 29.85 840 24.81 16.6 61.8 14 -11.1 11.9
13:55 1011 29.85 840 24.81 16.7 62 12 -13.1 8.4
14:00 1011 29.85 840 24.81 17.3 63.1 13 -11.5 11.3
14:05 1011 29.85 840 24.81 17.7 63.9 13 -11.2 11.8
14:10 1011 29.85 840 24.81 16.9 62.3 12 -13.1 8.4
14:15 1011 29.85 840 24.81 17 62.5 11 -13.8 7.1
14:20 1011 29.85 840 24.81 17.8 64.1 11 -12.8 8.9
14:25 1011 29.85 840 24.81 17.7 63.8 12 -12.4 9.7
14:30 1011 29.85 840 24.81 16.5 61.7 12 -13.1 8.4
14:35 1011 29.85 840 24.81 16.7 62.1 11 -13.4 7.8
14:40 1011 29.85 840 24.81 16.6 61.8 12 -12.8 9
14:45 1011 29.85 840 24.81 16.3 61.3 12 -13.5 7.7
14:50 1011 29.85 840 24.81 16.7 62 12 -13.4 8
14:55 1011 29.85 840 24.81 16.6 61.9 11 -13.7 7.3
15:00 1011 29.85 840 24.81 16.5 61.6 13 -12.4 9.6
15:05 1011 29.85 840 24.81 16.1 60.9 13 -12.5 9.6
15:10 1011 29.85 840 24.81 15.9 60.7 12 -13.1 8.4
15:15 1011 29.85 840 24.81 15.9 60.6 14 -11.6 11.1
15:20 1011 29.85 840 24.81 16.3 61.3 13 -12.1 10.1
15:25 1011 29.85 840 24.81 15.9 60.6 14 -11.8 10.8
15:30 1011 29.85 840 24.81 15.7 60.3 14 -11.6 11.1
15:35 1011 29.85 840 24.81 15.7 60.3 15 -10.4 13.2
15:40 1011 29.85 840 24.81 15.7 60.3 19 -7.9 17.8
15:45 1011 29.85 840 24.81 15.5 59.9 19 -8.1 17.5
15:50 1011 29.85 840 24.81 15.2 59.3 19 -8.1 17.4
15:55 1011 29.85 840 24.81 14.9 58.8 17 -9.5 14.8
16:00 1011 29.85 840 24.81 14.6 58.3 21 -7.5 18.5
16:05 1011 29.85 840 24.81 14 57.2 23 -6.6 20.1
16:10 1011 29.85 840 24.81 13.7 56.7 25 -6.1 20.9
16:15 1011 29.85 840 24.81 13.5 56.4 25 -6.1 21.1
16:20 1011 29.85 840 24.81 13.3 56 25 -6 21.2
16:25 1011 29.85 840 24.81 13.2 55.8 25 -6.1 21
16:30 1011 29.85 840 24.81 13.1 55.5 26 -6 21.2
16:35 1011 29.85 840 24.81 12.9 55.3 26 -5.9 21.4
16:40 1011 29.85 840 24.81 12.7 54.9 26 -6.2 20.8
16:45 1011 29.85 840 24.81 12.6 54.6 26 -6.3 20.7
16:50 1011 29.85 840 24.81 12.4 54.2 26 -6.7 19.9
16:55 1011 29.85 840 24.81 12.2 53.9 26 -6.9 19.7
17:00 1011 29.85 840 24.81 12 53.5 26 -7.1 19.2
17:05 1011 29.85 841 24.83 11.8 53.3 26 -7 19.3
17:10 1011 29.85 841 24.83 11.7 53 26 -7.1 19.2
17:15 1012 29.88 841 24.83 11.6 52.8 27 -7 19.4
17:20 1012 29.88 841 24.83 11.4 52.5 27 -7 19.5
17:25 1012 29.88 841 24.83 11.2 52.1 27 -6.9 19.6
17:30 1012 29.88 841 24.83 11.1 52.1 27 -6.9 19.6
17:35 1012 29.88 841 24.83 11 51.8 28 -6.7 19.9
17:40 1012 29.88 841 24.83 10.8 51.4 29 -6.4 20.5
17:45 1012 29.88 841 24.83 10.5 51 30 -6.3 20.7
17:50 1012 29.88 841 24.83 10.3 50.5 31 -6.2 20.8
17:55 1012 29.88 841 24.83 10.1 50.2 32 -6 21.1
18:00 1012 29.88 841 24.83 9.9 49.7 32 -6 21.2
18:05 1012 29.88 842 24.86 9.6 49.3 33 -5.9 21.4
18:10 1012 29.88 842 24.86 9.4 48.8 34 -5.9 21.5
18:15 1013 29.91 842 24.86 9.2 48.5 34 -5.9 21.4
18:20 1013 29.91 842 24.86 9 48.1 35 -5.7 21.8
18:25 1013 29.91 842 24.86 8.7 47.7 36 -5.4 22.3
18:30 1013 29.91 842 24.86 8.5 47.3 38 -5 23
18:35 1013 29.91 842 24.86 8.3 46.9 39 -4.7 23.5
18:40 1013 29.91 842 24.86 8.1 46.6 41 -4.4 24.2
18:45 1013 29.91 842 24.86 7.9 46.3 43 -3.8 25.2
18:50 1013 29.91 843 24.89 7.7 45.9 45 -3.5 25.7
18:55 1013 29.91 843 24.89 7.5 45.4 47 -3.1 26.4
19:00 1013 29.91 843 24.89 7.2 45 49 -2.8 27
19:05 1014 29.94 843 24.89 7 44.7 50 -2.7 27.2
19:10 1014 29.94 843 24.89 6.8 44.3 51 -2.5 27.5
19:15 1014 29.94 843 24.89 6.6 44 52 -2.4 27.6
19:20 1014 29.94 843 24.89 6.5 43.7 53 -2.4 27.6
19:25 1014 29.94 843 24.89 6.3 43.4 54 -2.3 27.9
19:30 1014 29.94 843 24.89 6.2 43.1 55 -2.2 28
19:35 1014 29.94 843 24.89 6 42.8 56 -2.1 28.2
19:40 1014 29.94 843 24.89 5.8 42.5 56 -2.2 28.1
19:45 1014 29.94 843 24.89 5.8 42.4 57 -2 28.3
19:50 1014 29.94 843 24.89 5.6 42.1 58 -2 28.4
19:55 1014 29.94 843 24.89 5.5 41.9 59 -1.9 28.6
20:00 1014 29.94 843 24.89 5.4 41.7 59 -1.9 28.7
20:05 1014 29.94 843 24.89 5.3 41.5 60 -1.9 28.7
20:10 1014 29.94 843 24.89 5.1 41.2 61 -1.8 28.7
20:15 1014 29.94 843 24.89 5.1 41.1 61 -1.8 28.7
20:20 1014 29.94 843 24.89 5 41.1 61 -1.8 28.8
20:25 1014 29.94 843 24.89 4.9 40.9 62 -1.8 28.8
20:30 1014 29.94 843 24.89 4.8 40.6 62 -1.8 28.7
20:35 1014 29.94 843 24.89 4.6 40.4 63 -1.8 28.7
20:40 1014 29.94 843 24.89 4.5 40.1 64 -1.8 28.7
20:45 1014 29.94 843 24.89 4.3 39.7 64 -1.8 28.7
20:50 1014 29.94 843 24.89 4.1 39.5 65 -1.9 28.7
20:55 1015 29.97 844 24.92 4 39.1 66 -1.9 28.6
21:00 1015 29.97 844 24.92 3.8 38.9 66 -1.9 28.6
21:05 1015 29.97 844 24.92 3.8 38.8 66 -1.9 28.6
21:10 1015 29.97 844 24.92 3.6 38.5 67 -1.9 28.7
21:15 1015 29.97 845 24.95 3.5 38.3 68 -1.9 28.6
21:20 1016 30 845 24.95 3.4 38.1 68 -1.9 28.6
21:25 1016 30 845 24.95 3.4 38 68 -1.9 28.5
21:30 1016 30 845 24.95 3.3 37.9 69 -1.9 28.7
21:35 1016 30 846 24.98 3.2 37.7 69 -2 28.4
21:40 1017 30.03 846 24.98 3.1 37.6 69 -2 28.4
21:45 1016 30 846 24.98 2.9 37.3 69 -2.1 28.2
21:50 1016 30 846 24.98 2.8 37.1 69 -2.2 28
21:55 1016 30 846 24.98 2.7 36.9 70 -2.2 28
22:00 1016 30 845 24.95 2.6 36.7 70 -2.3 27.9
22:05 1016 30 846 24.98 2.5 36.5 70 -2.4 27.8
22:10 1016 30 846 24.98 2.5 36.4 70 -2.4 27.7
22:15 1016 30 846 24.98 2.3 36.2 71 -2.4 27.6
22:20 1016 30 846 24.98 2.2 36 71 -2.4 27.6
22:25 1016 30 845 24.95 2.1 35.8 72 -2.5 27.6
22:30 1016 30 846 24.98 2.1 35.7 72 -2.4 27.6
22:35 1016 30 846 24.98 2 35.5 73 -2.5 27.6
22:40 1017 30.03 846 24.98 1.8 35.3 73 -2.5 27.5
22:45 1016 30 846 24.98 1.8 35.2 74 -2.5 27.5
22:50 1016 30 846 24.98 1.6 34.9 74 -2.6 27.4
22:55 1016 30 846 24.98 1.5 34.6 75 -2.6 27.4
23:00 1016 30 846 24.98 1.3 34.4 75 -2.7 27.2
23:05 1017 30.03 846 24.98 1.3 34.3 76 -2.6 27.3
23:10 1017 30.03 846 24.98 1.2 34.1 76 -2.6 27.3
23:15 1017 30.03 846 24.98 1.1 33.9 76 -2.6 27.3
23:20 1017 30.03 846 24.98 1 33.8 77 -2.6 27.4
23:25 1017 30.03 846 24.98 0.9 33.6 78 -2.6 27.3
23:30 1017 30.03 846 24.98 0.7 33.3 78 -2.7 27.2
23:35 1017 30.03 846 24.98 0.8 33.4 78 -2.6 27.3
23:40 1017 30.03 846 24.98 0.7 33.2 78 -2.7 27.2
23:45 1017 30.03 846 24.98 0.6 33.1 79 -2.6 27.3
23:50 1017 30.03 846 24.98 0.6 33.1 79 -2.6 27.3
23:55 1017 30.03 847 25.01 0.5 32.9 80 -2.6 27.2
24:00 1017 30.03 847 25.01 0.4 32.8 80 -2.7 27.2